Time;durP1;ratioP1;P1;durP2;ratioP2;P2;SDS_P1;SDS_P2;PMS_P1;PMS_P2;Temp;Humidity;BMP_temperature;BMP_pressure;BME280_temperature;BME280_humidity;BME280_pressure;Samples;Min_cycle;Max_cycle;Signal;HPM_P1;HPM_P2
2021/11/05 00:00:39;;;;;;;28.48;18.48;;;9.20;99.90;;;;;;5032807;28;20196;-76
2021/11/05 00:03:07;;;;;;;22.38;15.77;;;9.20;99.90;;;;;;5031977;28;20238;-75
2021/11/05 00:05:35;;;;;;;19.83;15.13;;;9.20;99.90;;;;;;5029710;28;20682;-75
2021/11/05 00:08:07;;;;;;;23.80;16.55;;;9.20;99.90;;;;;;5032239;28;20667;-76
2021/11/05 00:10:34;;;;;;;25.67;15.93;;;9.20;99.90;;;;;;5035384;28;20299;-73
2021/11/05 00:13:08;;;;;;;26.45;18.48;;;9.20;99.90;;;;;;5036112;28;20228;-75
2021/11/05 00:15:36;;;;;;;23.65;17.17;;;9.20;99.90;;;;;;5034795;28;20662;-75
2021/11/05 00:18:04;;;;;;;25.40;16.88;;;9.20;99.90;;;;;;5035627;28;20228;-74
2021/11/05 00:20:32;;;;;;;26.25;18.42;;;9.20;99.90;;;;;;5036440;28;20204;-75
2021/11/05 00:23:01;;;;;;;24.42;16.65;;;9.10;99.90;;;;;;5032223;28;20220;-73
2021/11/05 00:25:28;;;;;;;30.35;17.67;;;9.10;99.90;;;;;;5035759;28;20204;-77
2021/11/05 00:27:56;;;;;;;26.83;18.80;;;9.20;99.90;;;;;;5036065;28;20201;-76
2021/11/05 00:30:23;;;;;;;27.92;16.88;;;9.20;99.90;;;;;;5036044;28;20287;-76
2021/11/05 00:32:50;;;;;;;25.83;18.58;;;9.20;99.90;;;;;;5036363;28;20220;-76
2021/11/05 00:35:17;;;;;;;30.52;17.55;;;9.20;99.90;;;;;;5027631;28;20196;-76
2021/11/05 00:37:45;;;;;;;23.40;18.70;;;9.20;99.90;;;;;;5043531;28;20195;-75
2021/11/05 00:40:15;;;;;;;22.08;17.45;;;9.10;99.90;;;;;;5024687;28;20209;-75
2021/11/05 00:42:42;;;;;;;26.27;17.50;;;9.10;99.90;;;;;;5034840;28;20228;-78
2021/11/05 00:45:11;;;;;;;27.67;19.33;;;9.10;99.90;;;;;;5041131;28;20258;-73
2021/11/05 00:47:38;;;;;;;27.58;18.90;;;9.00;99.90;;;;;;5034813;28;20258;-75
2021/11/05 00:50:07;;;;;;;28.63;18.20;;;9.10;99.90;;;;;;5038251;28;20203;-75
2021/11/05 00:52:34;;;;;;;29.88;18.98;;;9.10;99.90;;;;;;5024211;28;20243;-75
2021/11/05 00:55:01;;;;;;;26.58;17.70;;;9.10;99.90;;;;;;5030857;28;20204;-76
2021/11/05 00:57:29;;;;;;;27.95;16.40;;;9.10;99.90;;;;;;5026860;28;20284;-75
2021/11/05 00:59:57;;;;;;;31.17;21.17;;;9.10;99.90;;;;;;5032440;28;20438;-73
2021/11/05 01:02:24;;;;;;;26.05;18.15;;;9.00;99.90;;;;;;5029542;28;20231;-77
2021/11/05 01:04:51;;;;;;;25.83;18.20;;;9.00;99.90;;;;;;5035720;28;20199;-76
2021/11/05 01:07:18;;;;;;;30.27;19.85;;;9.00;99.90;;;;;;5034772;28;20207;-75
2021/11/05 01:09:46;;;;;;;26.45;17.75;;;9.00;99.90;;;;;;5032628;28;20711;-75
2021/11/05 01:12:14;;;;;;;28.50;17.80;;;9.00;99.90;;;;;;5033548;28;20710;-75
2021/11/05 01:14:43;;;;;;;22.60;16.05;;;9.00;99.90;;;;;;5032010;28;21575;-77
2021/11/05 01:17:10;;;;;;;32.42;20.02;;;9.10;99.90;;;;;;5035001;28;20665;-76
2021/11/05 01:19:38;;;;;;;25.52;17.38;;;9.00;99.90;;;;;;5035535;28;20729;-76
2021/11/05 01:22:06;;;;;;;24.23;18.30;;;9.00;99.90;;;;;;5036426;28;20235;-77
2021/11/05 01:24:33;;;;;;;22.15;17.75;;;9.00;99.90;;;;;;5038656;28;20201;-75
2021/11/05 01:27:00;;;;;;;26.83;19.10;;;9.00;99.90;;;;;;5034512;28;20232;-76
2021/11/05 01:29:27;;;;;;;34.13;19.33;;;9.00;99.90;;;;;;5034962;28;20287;-74
2021/11/05 01:31:56;;;;;;;23.40;19.15;;;9.00;99.90;;;;;;5033970;28;20201;-77
2021/11/05 01:34:24;;;;;;;29.83;19.13;;;9.00;99.90;;;;;;5041310;28;20192;-73
2021/11/05 01:36:52;;;;;;;21.83;16.63;;;9.00;99.90;;;;;;5034669;28;20560;-77
2021/11/05 01:39:27;;;;;;;22.17;14.90;;;8.90;99.90;;;;;;5035348;28;20204;-74
2021/11/05 01:42:00;;;;;;;27.92;17.77;;;9.00;99.90;;;;;;5031762;28;20208;-78
2021/11/05 01:44:28;;;;;;;24.55;16.95;;;9.00;99.90;;;;;;5034874;28;20212;-74
2021/11/05 01:46:57;;;;;;;25.60;17.80;;;8.90;99.90;;;;;;5032964;28;20240;-78
2021/11/05 01:49:24;;;;;;;28.30;18.52;;;8.90;99.90;;;;;;5033670;28;20196;-77
2021/11/05 01:51:53;;;;;;;22.85;16.95;;;8.90;99.90;;;;;;5028035;28;20207;-76
2021/11/05 01:54:20;;;;;;;30.13;17.75;;;8.90;99.90;;;;;;5031207;28;20206;-77
2021/11/05 01:56:49;;;;;;;23.25;17.13;;;8.90;99.90;;;;;;5036566;28;20615;-76
2021/11/05 01:59:24;;;;;;;26.38;16.52;;;8.90;99.90;;;;;;5034690;28;20556;-76
2021/11/05 02:02:23;;;;;;;20.65;16.17;;;8.90;99.90;;;;;;5031105;28;20198;-73
2021/11/05 02:04:50;;;;;;;25.23;15.85;;;8.80;99.90;;;;;;5035227;28;20203;-77
2021/11/05 02:07:23;;;;;;;19.98;14.88;;;8.80;99.90;;;;;;5035662;28;20216;-76
2021/11/05 02:09:50;;;;;;;24.08;15.27;;;8.80;99.90;;;;;;5034433;28;20283;-78
2021/11/05 02:12:29;;;;;;;21.20;15.88;;;8.80;99.90;;;;;;5039801;28;20220;-77
2021/11/05 02:14:58;;;;;;;22.35;15.15;;;8.80;99.90;;;;;;5034122;28;20210;-76
2021/11/05 02:17:29;;;;;;;20.38;15.68;;;8.80;99.90;;;;;;5039943;28;20646;-76
2021/11/05 02:19:58;;;;;;;15.93;13.70;;;8.80;99.90;;;;;;5040837;28;20208;-75
2021/11/05 02:22:31;;;;;;;19.73;15.32;;;8.80;99.90;;;;;;5043286;28;20243;-76
2021/11/05 02:24:58;;;;;;;21.08;14.65;;;8.80;99.90;;;;;;5040913;28;20196;-74
2021/11/05 02:27:25;;;;;;;24.25;14.88;;;8.80;99.90;;;;;;5040745;28;20208;-76
2021/11/05 02:29:52;;;;;;;22.40;14.80;;;8.80;99.90;;;;;;5041651;28;20367;-78
2021/11/05 02:32:19;;;;;;;22.23;14.55;;;8.90;99.90;;;;;;5049332;28;20238;-75
2021/11/05 02:34:47;;;;;;;20.10;13.77;;;8.80;99.90;;;;;;5036319;28;20206;-76
2021/11/05 02:37:21;;;;;;;19.05;12.40;;;8.80;99.90;;;;;;5033580;28;20193;-76
2021/11/05 02:39:49;;;;;;;18.23;13.50;;;8.90;99.90;;;;;;5032969;28;20215;-77
2021/11/05 02:42:16;;;;;;;16.45;13.48;;;8.90;99.90;;;;;;5034964;28;20224;-76
2021/11/05 02:44:44;;;;;;;21.67;14.30;;;8.90;99.90;;;;;;5037919;28;20208;-76
2021/11/05 02:47:24;;;;;;;22.50;13.90;;;8.90;99.90;;;;;;5041473;28;20219;-75
2021/11/05 02:49:52;;;;;;;19.33;13.45;;;8.80;99.90;;;;;;5043874;28;20200;-76
2021/11/05 02:52:20;;;;;;;19.65;14.75;;;8.90;99.90;;;;;;5034167;28;20699;-75
2021/11/05 02:54:50;;;;;;;15.57;12.05;;;8.90;99.90;;;;;;5033794;28;20197;-74
2021/11/05 02:57:18;;;;;;;18.55;14.63;;;8.90;99.90;;;;;;5036546;28;20194;-75
2021/11/05 02:59:45;;;;;;;18.17;12.65;;;8.90;99.90;;;;;;5035786;28;20682;-77
2021/11/05 03:02:13;;;;;;;19.35;12.57;;;8.90;99.90;;;;;;5033546;28;20235;-77
2021/11/05 03:04:40;;;;;;;18.73;13.88;;;8.90;99.90;;;;;;5033385;28;20654;-75
2021/11/05 03:07:09;;;;;;;24.58;13.90;;;8.90;99.90;;;;;;5040332;28;20217;-75
2021/11/05 03:09:39;;;;;;;21.65;15.38;;;8.90;99.90;;;;;;5028743;28;20212;-77
2021/11/05 03:12:10;;;;;;;24.58;15.50;;;8.90;99.90;;;;;;5039337;28;20223;-78
2021/11/05 03:14:38;;;;;;;22.63;15.90;;;8.90;99.90;;;;;;5040188;28;20647;-80
2021/11/05 03:17:06;;;;;;;22.85;14.57;;;9.00;99.90;;;;;;5035786;28;20204;-78
2021/11/05 03:19:33;;;;;;;18.48;13.95;;;9.00;99.90;;;;;;5037045;28;20228;-78
2021/11/05 03:22:00;;;;;;;22.92;14.95;;;9.10;99.90;;;;;;5037548;28;20224;-79
2021/11/05 03:24:28;;;;;;;26.38;16.30;;;9.00;99.90;;;;;;5034797;28;20639;-77
2021/11/05 03:26:55;;;;;;;26.73;16.80;;;9.00;99.90;;;;;;5038690;28;20651;-76
2021/11/05 03:29:24;;;;;;;19.88;14.75;;;8.90;99.90;;;;;;5035105;28;20211;-78
2021/11/05 03:31:51;;;;;;;28.23;19.00;;;8.90;99.90;;;;;;5029788;28;20547;-78
2021/11/05 03:34:19;;;;;;;23.42;16.05;;;8.80;99.90;;;;;;5032927;28;20204;-78
2021/11/05 03:36:46;;;;;;;22.05;15.00;;;8.80;99.90;;;;;;5034705;28;20594;-79
2021/11/05 03:39:13;;;;;;;26.00;16.27;;;8.80;99.90;;;;;;5033575;28;20200;-79
2021/11/05 03:41:41;;;;;;;20.20;16.73;;;8.80;99.90;;;;;;5031393;28;20203;-79
2021/11/05 03:44:08;;;;;;;26.38;16.65;;;8.80;99.90;;;;;;5035325;28;20207;-80
2021/11/05 03:46:40;;;;;;;20.88;15.35;;;8.80;99.90;;;;;;5037560;28;20228;-79
2021/11/05 03:49:07;;;;;;;24.02;15.63;;;8.70;99.90;;;;;;5044611;28;20212;-79
2021/11/05 03:51:35;;;;;;;22.35;14.80;;;8.80;99.90;;;;;;5048017;28;20196;-79
2021/11/05 03:54:03;;;;;;;25.95;15.75;;;8.80;99.90;;;;;;5035525;28;20228;-79
2021/11/05 03:56:30;;;;;;;33.42;17.80;;;8.70;99.90;;;;;;5030317;28;20261;-80
2021/11/05 03:58:59;;;;;;;23.73;15.57;;;8.70;99.90;;;;;;5040602;28;20207;-79
2021/11/05 04:01:27;;;;;;;21.58;14.60;;;8.80;99.90;;;;;;5046937;28;20196;-78
2021/11/05 04:03:55;;;;;;;23.90;15.18;;;8.80;99.90;;;;;;5032382;28;20227;-79
2021/11/05 04:06:23;;;;;;;17.60;13.55;;;8.80;99.90;;;;;;5027205;28;20212;-77
2021/11/05 04:08:50;;;;;;;17.75;12.68;;;8.80;99.90;;;;;;5033965;28;20208;-78
2021/11/05 04:11:18;;;;;;;24.63;14.13;;;8.90;99.90;;;;;;5029544;28;20207;-78
2021/11/05 04:13:46;;;;;;;15.75;12.65;;;8.90;99.90;;;;;;5036121;28;20227;-79
2021/11/05 04:16:14;;;;;;;19.55;12.85;;;8.90;99.90;;;;;;5038788;28;20215;-79
2021/11/05 04:18:43;;;;;;;17.08;13.05;;;8.90;99.90;;;;;;5036654;28;20295;-82
2021/11/05 04:21:12;;;;;;;18.02;11.88;;;8.90;99.90;;;;;;5042002;28;20211;-81
2021/11/05 04:23:39;;;;;;;20.25;11.60;;;8.90;99.90;;;;;;5037620;28;20231;-79
2021/11/05 04:26:07;;;;;;;13.50;10.52;;;9.00;99.90;;;;;;5037254;28;20291;-78
2021/11/05 04:28:35;;;;;;;13.50;10.93;;;9.10;99.90;;;;;;5035364;28;20205;-79
2021/11/05 04:31:02;;;;;;;19.65;11.10;;;9.10;99.90;;;;;;5033377;28;20200;-79
2021/11/05 04:33:31;;;;;;;14.35;10.93;;;9.10;99.90;;;;;;5039510;28;20223;-78
2021/11/05 04:35:59;;;;;;;15.65;10.57;;;9.10;99.90;;;;;;5038541;28;20180;-79
2021/11/05 04:38:28;;;;;;;15.07;10.75;;;9.10;99.90;;;;;;5042240;28;20204;-79
2021/11/05 04:40:55;;;;;;;16.33;11.15;;;9.20;99.90;;;;;;5044674;28;20214;-80
2021/11/05 04:43:23;;;;;;;20.92;10.60;;;9.20;99.90;;;;;;5034818;28;20232;-79
2021/11/05 04:45:51;;;;;;;18.77;11.50;;;9.20;99.90;;;;;;5044558;28;20200;-80
2021/11/05 04:48:20;;;;;;;14.40;10.43;;;9.20;99.90;;;;;;5038006;28;20753;-79
2021/11/05 04:50:48;;;;;;;14.85;10.75;;;9.10;99.90;;;;;;5047912;28;20207;-78
2021/11/05 04:53:15;;;;;;;15.25;10.75;;;9.00;99.90;;;;;;5046511;28;20256;-80
2021/11/05 04:55:44;;;;;;;12.35;10.35;;;9.20;99.90;;;;;;5043669;28;20216;-79
2021/11/05 04:58:11;;;;;;;12.43;9.00;;;9.20;99.90;;;;;;5043600;28;20223;-80
2021/11/05 05:00:39;;;;;;;11.45;8.93;;;9.30;99.90;;;;;;5036379;28;20224;-81
2021/11/05 05:03:06;;;;;;;12.98;9.25;;;9.20;99.90;;;;;;5040144;28;20306;-78
2021/11/05 05:05:34;;;;;;;11.18;8.90;;;9.30;99.90;;;;;;5040390;28;20266;-79
2021/11/05 05:08:01;;;;;;;19.42;9.55;;;9.30;99.90;;;;;;5044206;28;20235;-79
2021/11/05 05:10:29;;;;;;;9.98;7.65;;;9.30;99.90;;;;;;5040580;28;20651;-80
2021/11/05 05:12:57;;;;;;;11.98;8.75;;;9.20;99.90;;;;;;5037382;28;20691;-80
2021/11/05 05:15:25;;;;;;;13.40;9.40;;;9.30;99.90;;;;;;5048280;28;20188;-80
2021/11/05 05:17:54;;;;;;;14.57;9.88;;;9.30;99.90;;;;;;5055587;28;20200;-81
2021/11/05 05:20:23;;;;;;;14.48;9.25;;;9.30;99.90;;;;;;5038323;28;20200;-81
2021/11/05 05:22:50;;;;;;;11.90;8.68;;;9.30;99.90;;;;;;5038030;28;20220;-81
2021/11/05 05:25:20;;;;;;;15.23;8.95;;;9.40;99.90;;;;;;5036126;28;20204;-79
2021/11/05 05:27:50;;;;;;;11.68;8.18;;;9.40;99.90;;;;;;5039062;28;20220;-80
2021/11/05 05:30:19;;;;;;;12.57;7.20;;;9.30;99.90;;;;;;5036525;28;20211;-80
2021/11/05 05:32:48;;;;;;;9.38;6.88;;;9.30;99.90;;;;;;5034800;28;20226;-78
2021/11/05 05:35:17;;;;;;;11.98;8.15;;;9.30;99.90;;;;;;5035287;28;20279;-79
2021/11/05 05:37:44;;;;;;;12.05;9.10;;;9.20;99.90;;;;;;5035360;28;20287;-78
2021/11/05 05:40:13;;;;;;;17.85;10.27;;;9.20;99.90;;;;;;5029240;28;20211;-77
2021/11/05 05:42:40;;;;;;;14.80;8.65;;;9.20;99.90;;;;;;5035554;28;20769;-79
2021/11/05 05:45:09;;;;;;;15.88;9.38;;;9.20;99.90;;;;;;5036682;28;20196;-78
2021/11/05 05:47:41;;;;;;;14.35;10.30;;;9.20;99.90;;;;;;5036353;28;20208;-79
2021/11/05 05:50:11;;;;;;;13.90;9.77;;;9.00;99.90;;;;;;5040937;28;20200;-79
2021/11/05 05:52:45;;;;;;;15.88;9.65;;;9.20;99.90;;;;;;5039510;28;20231;-80
2021/11/05 05:55:14;;;;;;;18.23;10.25;;;9.20;99.90;;;;;;5035888;28;20204;-78
2021/11/05 05:57:42;;;;;;;13.50;9.23;;;9.20;99.90;;;;;;5037344;28;20551;-79
2021/11/05 06:00:13;;;;;;;17.63;9.15;;;9.30;99.90;;;;;;5036137;28;20200;-78
2021/11/05 06:02:42;;;;;;;15.65;9.63;;;9.30;99.90;;;;;;5034592;28;20220;-79
2021/11/05 06:05:09;;;;;;;15.02;10.05;;;9.30;99.90;;;;;;5035667;28;20200;-77
2021/11/05 06:07:45;;;;;;;20.10;9.50;;;9.30;99.90;;;;;;5032910;28;20212;-76
2021/11/05 06:10:12;;;;;;;17.98;9.35;;;9.20;99.90;;;;;;5036680;28;20219;-77
2021/11/05 06:12:45;;;;;;;13.32;8.32;;;9.30;99.90;;;;;;5034655;28;20580;-76
2021/11/05 06:15:12;;;;;;;27.20;14.05;;;9.30;99.90;;;;;;5031589;28;20198;-76
2021/11/05 06:17:43;;;;;;;10.80;7.97;;;9.30;99.90;;;;;;5031259;28;20207;-77
2021/11/05 06:20:10;;;;;;;19.67;9.68;;;9.30;99.90;;;;;;5028459;28;20200;-76
2021/11/05 06:22:38;;;;;;;16.30;8.65;;;9.30;99.90;;;;;;5024892;28;20231;-74
2021/11/05 06:25:06;;;;;;;22.45;9.75;;;9.30;99.90;;;;;;5035763;28;20219;-77
2021/11/05 06:27:33;;;;;;;11.57;9.40;;;9.30;99.90;;;;;;5023462;28;20229;-76
2021/11/05 06:30:01;;;;;;;16.55;9.05;;;9.20;99.90;;;;;;5028755;28;20220;-73
2021/11/05 06:32:28;;;;;;;14.90;10.43;;;9.20;99.90;;;;;;5035152;28;20303;-74
2021/11/05 06:34:58;;;;;;;14.27;8.68;;;9.20;99.90;;;;;;5038278;28;20286;-73
2021/11/05 06:37:26;;;;;;;13.38;8.98;;;9.30;99.90;;;;;;5031212;28;20228;-74
2021/11/05 06:39:54;;;;;;;13.27;9.85;;;9.20;99.90;;;;;;5046947;28;20214;-74
2021/11/05 06:42:24;;;;;;;12.52;8.80;;;9.20;99.90;;;;;;5042888;28;20303;-75
2021/11/05 06:44:53;;;;;;;15.30;9.82;;;9.10;99.90;;;;;;5038402;28;20215;-75
2021/11/05 06:47:22;;;;;;;15.52;11.13;;;9.00;99.90;;;;;;5046406;28;20227;-75
2021/11/05 06:50:00;;;;;;;16.17;10.57;;;9.00;99.90;;;;;;5043169;28;20196;-74
2021/11/05 06:52:27;;;;;;;15.10;9.57;;;9.10;99.90;;;;;;5040923;28;20307;-76
2021/11/05 06:55:03;;;;;;;17.10;10.45;;;9.00;99.90;;;;;;5044117;28;20201;-78
2021/11/05 06:57:30;;;;;;;12.10;9.65;;;9.00;99.90;;;;;;5044785;28;20196;-75
2021/11/05 07:00:06;;;;;;;21.85;10.73;;;9.00;99.90;;;;;;5035721;28;20204;-77
2021/11/05 07:02:33;;;;;;;17.10;9.95;;;9.00;99.90;;;;;;5027454;28;20701;-76
2021/11/05 07:05:03;;;;;;;17.42;10.57;;;9.00;99.90;;;;;;5029312;28;20720;-75
2021/11/05 07:07:30;;;;;;;14.77;9.55;;;9.00;99.90;;;;;;5028461;28;20306;-77
2021/11/05 07:09:59;;;;;;;18.52;11.00;;;9.00;99.90;;;;;;5029407;28;20236;-78
2021/11/05 07:12:36;;;;;;;17.50;10.02;;;9.00;99.90;;;;;;5037389;28;20223;-73
2021/11/05 07:15:04;;;;;;;19.02;9.68;;;9.00;99.90;;;;;;5034671;28;20223;-76
2021/11/05 07:17:31;;;;;;;17.45;11.05;;;9.00;99.90;;;;;;5040466;28;20655;-77
2021/11/05 07:19:59;;;;;;;22.92;9.38;;;8.90;99.90;;;;;;5032700;28;20203;-74
2021/11/05 07:22:30;;;;;;;14.45;9.43;;;8.90;99.90;;;;;;5032253;28;20224;-76
2021/11/05 07:24:57;;;;;;;13.10;9.80;;;9.00;99.90;;;;;;5035947;28;20634;-74
2021/11/05 07:27:25;;;;;;;22.05;10.88;;;9.10;99.90;;;;;;5031409;28;20218;-75
2021/11/05 07:29:52;;;;;;;12.48;9.20;;;9.10;99.90;;;;;;5027835;28;20205;-75
2021/11/05 07:32:20;;;;;;;18.50;9.68;;;9.20;99.90;;;;;;5027280;28;20220;-72
2021/11/05 07:34:48;;;;;;;18.38;8.90;;;9.10;99.90;;;;;;5024405;28;20204;-73
2021/11/05 07:37:18;;;;;;;15.23;9.65;;;9.20;99.90;;;;;;5031269;28;20197;-73
2021/11/05 07:39:47;;;;;;;12.23;7.65;;;9.90;99.90;;;;;;5031123;28;20198;-70
2021/11/05 07:42:14;;;;;;;13.48;7.55;;;10.70;99.90;;;;;;5028612;28;20240;-68
2021/11/05 07:44:43;;;;;;;10.35;7.85;;;11.30;99.90;;;;;;5026991;28;20201;-70
2021/11/05 07:47:11;;;;;;;9.75;6.55;;;11.90;99.90;;;;;;5023614;28;20195;-68
2021/11/05 07:49:38;;;;;;;10.07;5.45;;;12.70;99.90;;;;;;5028932;28;20196;-71
2021/11/05 07:52:06;;;;;;;9.35;6.70;;;13.50;99.90;;;;;;5030882;28;20232;-70
2021/11/05 07:54:33;;;;;;;9.75;7.20;;;13.90;99.90;;;;;;5030102;28;20213;-72
2021/11/05 07:57:04;;;;;;;8.10;6.15;;;14.20;99.90;;;;;;5030763;28;20582;-69
2021/11/05 07:59:32;;;;;;;8.57;6.00;;;14.60;99.90;;;;;;5029672;28;20197;-69
2021/11/05 08:01:59;;;;;;;8.55;5.85;;;15.00;99.90;;;;;;5031228;28;20676;-69
2021/11/05 08:04:26;;;;;;;8.50;5.83;;;15.30;99.90;;;;;;5027638;28;20202;-70
2021/11/05 08:06:53;;;;;;;9.25;5.35;;;15.30;99.90;;;;;;5030809;28;20452;-68
2021/11/05 08:09:22;;;;;;;7.70;5.77;;;15.20;99.90;;;;;;5031995;28;20216;-70
2021/11/05 08:11:49;;;;;;;9.48;6.35;;;15.70;99.90;;;;;;5031012;28;20446;-69
2021/11/05 08:14:18;;;;;;;7.63;5.70;;;16.10;99.90;;;;;;5033631;28;20208;-70
2021/11/05 08:16:45;;;;;;;9.03;6.00;;;16.40;99.90;;;;;;5031648;28;20517;-70
2021/11/05 08:19:13;;;;;;;9.70;5.73;;;16.60;99.90;;;;;;5035314;28;20473;-69
2021/11/05 08:21:40;;;;;;;10.73;6.00;;;16.90;99.90;;;;;;5031860;28;20438;-70
2021/11/05 08:24:08;;;;;;;6.70;5.07;;;16.80;99.90;;;;;;5029076;28;20478;-69
2021/11/05 08:26:36;;;;;;;8.07;5.70;;;17.00;99.90;;;;;;5023177;28;20533;-70
2021/11/05 08:29:06;;;;;;;9.30;6.20;;;17.20;99.50;;;;;;5026799;28;20475;-68
2021/11/05 08:31:34;;;;;;;6.20;4.60;;;17.40;99.70;;;;;;5033469;28;20462;-71
2021/11/05 08:34:03;;;;;;;11.43;6.80;;;18.00;99.90;;;;;;5033779;28;20857;-69
2021/11/05 08:36:31;;;;;;;7.57;5.73;;;18.20;98.90;;;;;;5028873;28;20546;-69
2021/11/05 08:38:59;;;;;;;6.57;5.27;;;18.60;98.70;;;;;;5033798;28;20429;-73
2021/11/05 08:41:26;;;;;;;6.63;4.63;;;18.80;97.50;;;;;;5045256;28;20450;-70
2021/11/05 08:44:16;;;;;;;10.10;4.47;;;18.70;96.40;;;;;;5049095;28;20530;-73
2021/11/05 08:46:49;;;;;;;7.20;4.30;;;18.40;95.70;;;;;;5052477;28;20438;-73
2021/11/05 08:49:27;;;;;;;8.90;4.80;;;19.00;96.10;;;;;;5048224;28;20474;-73
2021/11/05 08:51:55;;;;;;;5.80;4.93;;;19.10;95.10;;;;;;5044835;28;20442;-71
2021/11/05 08:54:23;;;;;;;5.13;3.80;;;19.10;95.40;;;;;;5048927;28;20466;-72
2021/11/05 08:56:50;;;;;;;5.63;4.23;;;19.50;96.10;;;;;;5044285;28;20461;-72
2021/11/05 08:59:23;;;;;;;8.30;4.83;;;19.90;94.40;;;;;;5049660;28;20946;-72
2021/11/05 09:01:52;;;;;;;7.80;4.50;;;19.80;93.40;;;;;;5041281;28;20462;-72
2021/11/05 09:04:44;;;;;;;10.30;4.60;;;20.00;93.60;;;;;;5037433;28;20443;-72
2021/11/05 09:07:11;;;;;;;9.60;3.90;;;19.90;93.00;;;;;;5039754;28;20443;-71
2021/11/05 09:09:48;;;;;;;6.33;3.40;;;19.40;93.60;;;;;;5034426;28;20479;-72
2021/11/05 09:12:15;;;;;;;5.03;3.97;;;19.50;94.10;;;;;;5053382;28;20479;-72
2021/11/05 09:14:45;;;;;;;16.57;3.77;;;19.80;93.50;;;;;;5044748;28;20506;-72
2021/11/05 09:17:13;;;;;;;11.23;4.00;;;19.80;92.90;;;;;;5036071;28;20521;-72
2021/11/05 09:19:49;;;;;;;5.07;3.20;;;19.70;93.00;;;;;;5032764;28;20446;-72
2021/11/05 09:22:17;;;;;;;6.57;4.00;;;20.00;92.60;;;;;;5040272;28;20464;-72
2021/11/05 09:24:44;;;;;;;5.87;3.90;;;19.50;93.50;;;;;;5034855;28;20466;-72
2021/11/05 09:27:11;;;;;;;8.90;3.73;;;19.50;93.20;;;;;;5034954;28;20444;-72
2021/11/05 09:29:41;;;;;;;4.87;2.83;;;18.90;93.40;;;;;;5035444;28;20490;-72
2021/11/05 09:32:08;;;;;;;7.60;3.57;;;19.00;94.20;;;;;;5045308;28;20472;-72
2021/11/05 09:34:39;;;;;;;8.03;3.20;;;19.00;94.60;;;;;;5040220;28;20462;-72
2021/11/05 09:37:07;;;;;;;5.50;3.37;;;19.10;93.80;;;;;;5035943;28;20441;-72
2021/11/05 09:39:35;;;;;;;8.10;3.10;;;18.80;94.60;;;;;;5032714;28;20447;-73
2021/11/05 09:42:02;;;;;;;7.40;4.07;;;18.70;94.30;;;;;;5034350;28;20471;-71
2021/11/05 09:44:30;;;;;;;3.47;2.90;;;19.00;94.30;;;;;;5036393;28;20834;-72
2021/11/05 09:47:01;;;;;;;4.80;3.60;;;19.00;94.60;;;;;;5032100;28;20434;-72
2021/11/05 09:49:29;;;;;;;7.70;4.90;;;19.40;94.10;;;;;;5027258;28;20493;-72
2021/11/05 09:51:59;;;;;;;8.60;3.20;;;19.50;93.50;;;;;;5035711;28;20438;-72
2021/11/05 09:54:28;;;;;;;5.50;3.10;;;19.40;93.10;;;;;;5023603;28;20455;-72
2021/11/05 09:56:57;;;;;;;4.67;2.90;;;18.90;93.80;;;;;;5032646;28;20544;-72
2021/11/05 09:59:25;;;;;;;3.83;2.43;;;18.10;94.20;;;;;;5027835;28;20913;-72
2021/11/05 10:01:53;;;;;;;2.90;1.60;;;17.30;95.70;;;;;;5027688;28;20450;-71
2021/11/05 10:04:20;;;;;;;4.13;2.40;;;16.90;97.90;;;;;;5030963;28;20474;-73
2021/11/05 10:07:02;;;;;;;2.63;2.40;;;16.10;99.30;;;;;;5025621;28;20811;-72
2021/11/05 10:09:38;;;;;;;5.28;2.67;;;15.50;99.90;;;;;;5025218;28;20210;-72
2021/11/05 10:12:12;;;;;;;6.30;3.47;;;15.20;99.90;;;;;;5031733;28;20705;-72
2021/11/05 10:14:40;;;;;;;5.22;3.38;;;15.30;99.90;;;;;;5030063;28;20205;-72
2021/11/05 10:17:09;;;;;;;7.50;4.07;;;15.10;99.90;;;;;;5032116;28;20546;-72
2021/11/05 10:19:52;;;;;;;8.18;3.30;;;15.20;99.90;;;;;;5037922;28;20205;-73
2021/11/05 10:22:36;;;;;;;3.53;2.33;;;15.10;99.90;;;;;;5024208;28;20355;-72
2021/11/05 10:25:24;;;;;;;5.82;2.42;;;14.90;99.90;;;;;;5032663;28;20284;-72
2021/11/05 10:28:04;;;;;;;6.95;3.00;;;14.90;99.90;;;;;;5031171;28;20628;-72
2021/11/05 10:30:33;;;;;;;5.07;2.53;;;14.60;99.90;;;;;;5033744;28;20196;-72
2021/11/05 10:33:02;;;;;;;5.30;1.80;;;14.50;99.90;;;;;;5029662;28;20245;-72
2021/11/05 10:35:29;;;;;;;8.50;2.85;;;14.30;99.90;;;;;;5038238;28;20552;-72
2021/11/05 10:38:03;;;;;;;7.30;3.75;;;13.90;99.90;;;;;;5028992;28;20708;-73
2021/11/05 10:40:36;;;;;;;6.93;3.72;;;13.90;99.90;;;;;;5032254;28;20532;-72
2021/11/05 10:43:04;;;;;;;9.25;2.63;;;14.00;99.90;;;;;;5035129;28;20239;-73
2021/11/05 10:45:33;;;;;;;7.95;3.47;;;14.00;99.90;;;;;;5029505;28;20196;-72
2021/11/05 10:48:06;;;;;;;10.77;3.95;;;14.00;99.90;;;;;;5026561;28;20627;-72
2021/11/05 10:50:36;;;;;;;3.40;2.00;;;14.10;99.90;;;;;;5032111;28;20243;-72
2021/11/05 10:53:08;;;;;;;7.97;2.35;;;14.00;99.90;;;;;;5027184;28;20548;-72
2021/11/05 10:55:44;;;;;;;5.00;3.38;;;14.00;99.90;;;;;;5024083;28;20247;-73
2021/11/05 10:58:17;;;;;;;6.95;2.25;;;14.00;99.90;;;;;;5031093;28;20214;-72
2021/11/05 11:00:45;;;;;;;3.53;2.58;;;14.00;99.90;;;;;;5032438;28;20285;-72
2021/11/05 11:03:17;;;;;;;4.70;2.75;;;13.90;99.90;;;;;;5038100;28;20227;-72
2021/11/05 11:05:45;;;;;;;3.03;2.30;;;13.70;99.90;;;;;;5027257;28;20201;-72
2021/11/05 11:08:35;;;;;;;4.43;2.05;;;13.70;99.90;;;;;;5027693;28;20295;-72
2021/11/05 11:11:16;;;;;;;2.72;1.83;;;13.70;99.90;;;;;;5030701;28;20212;-72
2021/11/05 11:13:44;;;;;;;6.93;2.28;;;13.80;99.90;;;;;;5032650;28;20234;-72
2021/11/05 11:16:20;;;;;;;5.65;2.45;;;13.70;99.90;;;;;;5032990;28;20227;-71
2021/11/05 11:18:54;;;;;;;3.80;1.67;;;13.80;99.90;;;;;;5030129;28;20226;-72
2021/11/05 11:21:24;;;;;;;6.45;2.25;;;13.80;99.90;;;;;;5030979;28;20211;-72
2021/11/05 11:23:52;;;;;;;3.58;1.85;;;13.80;99.90;;;;;;5031683;28;20303;-72
2021/11/05 11:26:20;;;;;;;4.03;1.80;;;13.80;99.90;;;;;;5031417;28;20282;-72
2021/11/05 11:28:47;;;;;;;4.85;2.22;;;13.90;99.90;;;;;;5031827;28;20227;-72
2021/11/05 11:31:17;;;;;;;4.15;2.47;;;13.70;99.90;;;;;;5032880;28;20192;-72
2021/11/05 11:33:45;;;;;;;3.97;1.90;;;13.80;99.90;;;;;;5032073;28;20301;-71
2021/11/05 11:36:13;;;;;;;5.05;1.80;;;13.90;99.90;;;;;;5030646;28;20203;-72
2021/11/05 11:38:41;;;;;;;5.15;1.83;;;13.80;99.90;;;;;;5032221;28;20201;-71
2021/11/05 11:41:11;;;;;;;3.22;2.00;;;13.90;99.90;;;;;;5031575;28;20322;-71
2021/11/05 11:43:40;;;;;;;2.78;1.60;;;14.00;99.90;;;;;;5031605;28;20243;-71
2021/11/05 11:46:08;;;;;;;6.22;1.48;;;14.00;99.90;;;;;;5031146;28;20203;-71
2021/11/05 11:48:47;;;;;;;3.97;1.35;;;14.10;99.90;;;;;;5031223;28;20965;-71
2021/11/05 11:51:30;;;;;;;5.28;1.90;;;14.00;99.90;;;;;;5030788;28;20199;-72
2021/11/05 11:54:00;;;;;;;2.90;1.10;;;14.00;99.90;;;;;;5031668;28;20278;-71
2021/11/05 11:56:35;;;;;;;2.72;1.15;;;13.90;99.90;;;;;;5030557;28;20215;-72
2021/11/05 11:59:04;;;;;;;5.50;1.45;;;13.80;99.90;;;;;;5031863;28;20199;-71
2021/11/05 12:01:35;;;;;;;2.72;1.17;;;13.70;99.90;;;;;;5030180;28;20227;-73
2021/11/05 12:04:05;;;;;;;4.35;1.50;;;13.70;99.90;;;;;;5031249;28;20259;-73
2021/11/05 12:07:15;;;;;;;3.05;1.10;;;13.90;99.90;;;;;;5027993;28;20207;-72
2021/11/05 12:09:42;;;;;;;3.28;1.25;;;14.00;99.90;;;;;;5020993;28;20250;-72
2021/11/05 12:12:32;;;;;;;2.80;1.48;;;13.90;99.90;;;;;;5034796;28;20228;-72
2021/11/05 12:15:16;;;;;;;10.02;1.60;;;14.00;99.90;;;;;;5038778;28;20196;-71
2021/11/05 12:18:11;;;;;;;4.20;1.17;;;13.90;99.90;;;;;;5045801;28;20540;-72
2021/11/05 12:20:43;;;;;;;3.20;1.02;;;13.90;99.90;;;;;;5031022;28;20646;-72
2021/11/05 12:23:18;;;;;;;10.55;1.33;;;13.80;99.90;;;;;;5034971;28;20706;-72
2021/11/05 12:25:55;;;;;;;2.30;1.10;;;13.70;99.90;;;;;;5035045;28;20559;-73
2021/11/05 12:28:28;;;;;;;2.15;1.60;;;13.60;99.90;;;;;;5039538;28;20234;-72
2021/11/05 12:31:16;;;;;;;4.47;1.90;;;13.70;99.90;;;;;;5035440;28;20262;-72
2021/11/05 12:33:44;;;;;;;2.15;1.42;;;13.60;99.90;;;;;;5024710;28;20220;-72
2021/11/05 12:36:11;;;;;;;3.70;1.23;;;13.50;99.90;;;;;;5033701;28;20254;-72
2021/11/05 12:38:59;;;;;;;1.70;1.00;;;13.30;99.90;;;;;;5031962;28;20201;-72
2021/11/05 12:41:27;;;;;;;5.30;1.23;;;12.90;99.90;;;;;;5034752;28;20209;-71
2021/11/05 12:44:10;;;;;;;1.98;1.30;;;12.90;99.90;;;;;;5028727;28;20357;-74
2021/11/05 12:46:46;;;;;;;5.53;1.25;;;12.80;99.90;;;;;;5035551;28;20202;-70
2021/11/05 12:49:19;;;;;;;3.00;0.90;;;12.90;99.90;;;;;;5036692;28;20289;-70
2021/11/05 12:51:48;;;;;;;3.70;1.05;;;12.90;99.90;;;;;;5042396;28;20582;-71
2021/11/05 12:54:19;;;;;;;3.88;1.25;;;13.00;99.90;;;;;;5029450;28;20261;-70
2021/11/05 12:56:52;;;;;;;3.92;1.60;;;13.10;99.90;;;;;;5032960;28;20575;-73